Time;durP1;ratioP1;P1;durP2;ratioP2;P2;SDS_P1;SDS_P2;PMS_P1;PMS_P2;Temp;Humidity;BMP_temperature;BMP_pressure;BME280_temperature;BME280_humidity;BME280_pressure;Samples;Min_cycle;Max_cycle;Signal;HPM_P1;HPM_P2
2022/02/07 00:00:45;;;;;;;0.05;0.05;;;5.80;99.90;;;;;;5067924;28;20029;-70
2022/02/07 00:03:30;;;;;;;0.00;0.00;;;5.90;99.90;;;;;;5053252;28;20041;-70
2022/02/07 00:05:55;;;;;;;0.00;0.00;;;6.00;99.90;;;;;;5068525;28;20029;-70
2022/02/07 00:08:22;;;;;;;0.00;0.00;;;5.90;99.90;;;;;;5068484;28;20043;-70
2022/02/07 00:10:48;;;;;;;0.00;0.00;;;5.90;99.90;;;;;;5068467;28;20029;-71
2022/02/07 00:13:14;;;;;;;0.00;0.00;;;5.90;99.90;;;;;;5052958;28;20044;-71
2022/02/07 00:15:40;;;;;;;0.10;0.10;;;5.90;99.90;;;;;;5053330;28;20430;-71
2022/02/07 00:18:07;;;;;;;0.00;0.00;;;5.90;99.90;;;;;;5052910;28;20037;-71
2022/02/07 00:20:35;;;;;;;1.85;1.75;;;5.90;99.90;;;;;;5053191;28;20057;-70
2022/02/07 00:23:01;;;;;;;0.00;0.00;;;6.00;99.90;;;;;;5052672;28;20112;-70
2022/02/07 00:25:27;;;;;;;0.00;0.00;;;6.00;99.90;;;;;;5051595;28;20478;-72
2022/02/07 00:27:53;;;;;;;0.00;0.00;;;6.00;99.90;;;;;;5068118;28;20037;-71
2022/02/07 00:30:22;;;;;;;0.00;0.00;;;6.00;99.90;;;;;;5068414;28;20116;-71
2022/02/07 00:32:48;;;;;;;0.10;0.10;;;6.00;99.90;;;;;;5068101;28;20053;-70
2022/02/07 00:35:18;;;;;;;0.00;0.00;;;6.10;99.90;;;;;;5052817;28;20175;-70
2022/02/07 00:37:46;;;;;;;0.10;0.10;;;6.10;99.90;;;;;;5051822;28;20079;-70
2022/02/07 00:43:13;;;;;;;0.00;0.00;;;6.10;99.90;;;;;;5052632;28;20029;-70
2022/02/07 00:45:49;;;;;;;0.00;0.00;;;6.10;99.90;;;;;;5064680;28;20045;-70
2022/02/07 00:48:14;;;;;;;0.10;0.10;;;6.10;99.90;;;;;;5066675;28;20036;-70
2022/02/07 00:50:43;;;;;;;0.03;0.03;;;6.10;99.90;;;;;;5067584;28;20035;-70
2022/02/07 00:53:13;;;;;;;0.00;0.00;;;6.00;99.90;;;;;;5067716;28;20033;-70
2022/02/07 00:55:39;;;;;;;0.00;0.00;;;6.00;99.90;;;;;;5067354;28;20074;-70
2022/02/07 00:58:05;;;;;;;0.00;0.00;;;5.90;99.90;;;;;;5052137;28;20040;-70
2022/02/07 01:00:32;;;;;;;0.10;0.10;;;5.90;99.90;;;;;;5052012;28;20037;-71
2022/02/07 01:02:58;;;;;;;0.00;0.00;;;5.90;99.90;;;;;;5052338;28;20036;-70
2022/02/07 01:05:25;;;;;;;0.00;0.00;;;5.80;99.90;;;;;;5067652;28;20513;-71
2022/02/07 01:07:51;;;;;;;0.00;0.00;;;5.80;99.90;;;;;;5050739;28;20473;-71
2022/02/07 01:10:32;;;;;;;0.65;0.65;;;5.80;99.90;;;;;;5051804;28;20086;-71
2022/02/07 01:13:30;;;;;;;0.10;0.10;;;5.70;99.90;;;;;;5067257;28;20051;-71
2022/02/07 01:16:38;;;;;;;0.80;0.80;;;5.80;99.90;;;;;;5051815;28;20393;-71
2022/02/07 01:46:56;;;;;;;0.08;0.08;;;5.40;99.90;;;;;;5051758;28;20076;-71
2022/02/07 01:57:05;;;;;;;0.10;0.10;;;5.30;99.90;;;;;;5051314;28;20493;-69
2022/02/07 01:59:31;;;;;;;0.10;0.10;;;5.40;99.90;;;;;;5051582;28;20466;-71
2022/02/07 02:01:57;;;;;;;0.00;0.00;;;5.40;99.90;;;;;;5066639;28;20401;-71
2022/02/07 02:04:24;;;;;;;0.00;0.00;;;5.40;99.90;;;;;;5067133;28;20021;-71
2022/02/07 02:06:50;;;;;;;0.10;0.10;;;5.50;99.90;;;;;;5066791;28;20033;-71
2022/02/07 02:09:17;;;;;;;0.10;0.10;;;5.50;99.90;;;;;;5066426;28;20699;-71
2022/02/07 02:11:44;;;;;;;0.00;0.00;;;5.40;99.90;;;;;;5051536;28;20033;-70
2022/02/07 02:14:31;;;;;;;0.00;0.00;;;5.30;99.90;;;;;;5050990;28;20060;-71
2022/02/07 02:22:48;;;;;;;0.00;0.00;;;5.30;99.90;;;;;;5051074;28;20068;-71
2022/02/07 02:36:44;;;;;;;2.25;1.55;;;4.60;99.90;;;;;;5051074;28;20622;-71
2022/02/07 02:46:31;;;;;;;0.20;0.20;;;4.30;99.90;;;;;;5051056;28;20082;-71
2022/02/07 02:49:01;;;;;;;0.10;0.10;;;4.30;99.90;;;;;;5066368;28;20033;-71
2022/02/07 02:51:28;;;;;;;0.10;0.10;;;4.30;99.90;;;;;;5050804;28;20025;-71
2022/02/07 02:53:54;;;;;;;0.10;0.10;;;4.30;99.90;;;;;;5050999;28;20083;-71
2022/02/07 02:56:20;;;;;;;0.05;0.05;;;4.30;99.90;;;;;;5051068;28;20029;-71
2022/02/07 02:58:46;;;;;;;0.00;0.00;;;4.30;99.90;;;;;;5066308;28;20114;-71
2022/02/07 03:01:12;;;;;;;0.00;0.00;;;4.30;99.90;;;;;;5053178;28;20049;-71
2022/02/07 03:03:38;;;;;;;0.10;0.10;;;4.10;99.90;;;;;;5054396;28;20485;-71
2022/02/07 03:06:04;;;;;;;0.10;0.10;;;4.00;99.90;;;;;;5069563;28;20413;-71
2022/02/07 03:08:30;;;;;;;0.10;0.10;;;3.80;99.90;;;;;;5054378;28;20390;-71
2022/02/07 03:11:04;;;;;;;0.10;0.10;;;3.70;99.90;;;;;;5054593;28;20071;-71
2022/02/07 03:18:40;;;;;;;0.00;0.00;;;3.40;99.90;;;;;;5062026;28;20389;-71
2022/02/07 03:21:06;;;;;;;0.10;0.10;;;3.30;99.90;;;;;;5053820;28;20044;-71
2022/02/07 03:23:31;;;;;;;0.10;0.10;;;3.50;99.90;;;;;;5069598;28;20024;-71
2022/02/07 03:25:57;;;;;;;0.10;0.10;;;3.50;99.90;;;;;;5058480;28;20036;-71
2022/02/07 03:28:26;;;;;;;0.10;0.10;;;3.50;99.90;;;;;;5069237;28;20414;-71
2022/02/07 03:30:53;;;;;;;0.10;0.10;;;3.50;99.90;;;;;;5069877;28;20033;-71
2022/02/07 03:33:18;;;;;;;0.10;0.10;;;3.50;99.90;;;;;;5069114;28;20057;-71
2022/02/07 03:35:44;;;;;;;0.10;0.10;;;3.50;99.90;;;;;;5053983;28;20044;-71
2022/02/07 03:38:10;;;;;;;0.10;0.10;;;3.50;99.90;;;;;;5053603;28;20029;-71
2022/02/07 03:40:37;;;;;;;0.10;0.10;;;3.40;99.90;;;;;;5069208;28;20045;-71
2022/02/07 03:43:03;;;;;;;0.10;0.10;;;3.40;99.90;;;;;;5053322;28;20036;-71
2022/02/07 03:45:29;;;;;;;0.10;0.10;;;3.50;99.90;;;;;;5053867;28;20040;-71
2022/02/07 03:47:55;;;;;;;0.10;0.10;;;3.50;99.90;;;;;;5069270;28;20021;-71
2022/02/07 03:50:22;;;;;;;0.10;0.10;;;3.50;99.90;;;;;;5068534;28;20048;-71
2022/02/07 03:52:50;;;;;;;0.10;0.10;;;3.60;99.90;;;;;;5053729;28;20082;-71
2022/02/07 03:55:17;;;;;;;0.10;0.10;;;3.50;99.90;;;;;;5053260;28;20033;-71
2022/02/07 03:57:42;;;;;;;0.10;0.10;;;3.60;99.90;;;;;;5053354;28;20500;-71
2022/02/07 04:00:11;;;;;;;0.10;0.10;;;3.70;99.90;;;;;;5068902;28;20076;-71
2022/02/07 04:02:42;;;;;;;0.10;0.10;;;3.70;99.90;;;;;;5053491;28;20025;-71
2022/02/07 04:07:49;;;;;;;;;;;3.60;99.90;;;;;;5053883;28;20068;-71
2022/02/07 04:10:15;;;;;;;0.52;0.52;;;3.60;99.90;;;;;;5051710;28;20009;-71
2022/02/07 04:12:47;;;;;;;0.10;0.10;;;3.70;99.90;;;;;;5051780;28;20048;-71
2022/02/07 04:15:17;;;;;;;0.13;0.13;;;3.70;99.90;;;;;;5052114;28;20480;-71
2022/02/07 04:17:48;;;;;;;0.10;0.10;;;3.80;99.90;;;;;;5052832;28;20547;-72
2022/02/07 04:20:13;;;;;;;0.10;0.10;;;3.90;99.90;;;;;;5051986;28;20040;-71
2022/02/07 04:22:39;;;;;;;0.57;0.55;;;3.90;99.90;;;;;;5052797;28;20033;-71
2022/02/07 04:25:05;;;;;;;0.10;0.10;;;3.90;99.90;;;;;;5052727;28;20497;-71
2022/02/07 04:27:31;;;;;;;0.10;0.10;;;3.90;99.90;;;;;;5051619;28;20056;-71
2022/02/07 04:29:57;;;;;;;0.10;0.10;;;4.00;99.90;;;;;;5068002;28;20481;-72
2022/02/07 04:32:22;;;;;;;0.00;0.00;;;3.90;99.90;;;;;;5052643;28;20025;-71
2022/02/07 04:34:48;;;;;;;0.10;0.10;;;4.00;99.90;;;;;;5068182;28;20041;-71
2022/02/07 04:37:14;;;;;;;0.10;0.10;;;3.90;99.90;;;;;;5068139;28;20037;-71
2022/02/07 04:39:39;;;;;;;0.10;0.10;;;4.00;99.90;;;;;;5052838;28;20109;-71
2022/02/07 04:42:09;;;;;;;0.10;0.10;;;4.00;99.90;;;;;;5052445;28;20052;-71
2022/02/07 04:44:43;;;;;;;0.10;0.10;;;4.00;99.90;;;;;;5067754;28;20546;-71
2022/02/07 04:47:20;;;;;;;0.10;0.10;;;4.00;99.90;;;;;;5052434;28;20041;-71
2022/02/07 04:55:18;;;;;;;0.10;0.10;;;4.10;99.90;;;;;;5052177;28;20048;-72
2022/02/07 05:03:02;;;;;;;0.00;0.00;;;4.20;99.90;;;;;;5051950;28;20072;-71
2022/02/07 05:13:45;;;;;;;0.10;0.10;;;4.30;99.90;;;;;;5064820;28;20037;-70
2022/02/07 05:16:20;;;;;;;0.10;0.10;;;4.30;99.90;;;;;;5051871;28;20041;-69
2022/02/07 05:18:49;;;;;;;0.10;0.10;;;4.20;99.90;;;;;;5051560;28;20036;-73
2022/02/07 05:21:15;;;;;;;0.10;0.10;;;4.30;99.90;;;;;;5064379;28;20029;-73
2022/02/07 05:23:42;;;;;;;0.00;0.00;;;4.40;99.90;;;;;;5051387;28;20036;-74
2022/02/07 05:26:07;;;;;;;0.03;0.03;;;4.40;99.90;;;;;;5066925;28;20043;-73
2022/02/07 05:28:36;;;;;;;0.00;0.00;;;4.40;99.90;;;;;;5051846;28;20037;-72
2022/02/07 05:31:02;;;;;;;0.10;0.10;;;4.30;99.90;;;;;;5066995;28;20037;-73
2022/02/07 05:33:28;;;;;;;0.10;0.10;;;4.30;99.90;;;;;;5051563;28;20056;-70
2022/02/07 05:35:56;;;;;;;0.10;0.10;;;4.30;99.90;;;;;;5051681;28;20037;-74
2022/02/07 05:38:22;;;;;;;0.05;0.05;;;4.20;99.90;;;;;;5051363;28;20041;-73
2022/02/07 05:43:17;;;;;;;0.10;0.10;;;4.20;99.90;;;;;;5051449;28;20048;-71
2022/02/07 05:45:43;;;;;;;0.10;0.10;;;4.20;99.90;;;;;;5051480;28;20029;-73
2022/02/07 05:48:09;;;;;;;0.10;0.10;;;4.10;99.90;;;;;;5051147;28;20041;-72
2022/02/07 05:50:35;;;;;;;0.10;0.10;;;4.10;99.90;;;;;;5051605;28;20385;-72
2022/02/07 05:53:00;;;;;;;1.08;1.08;;;4.10;99.90;;;;;;5051506;28;20464;-73
2022/02/07 05:55:27;;;;;;;0.10;0.10;;;4.10;99.90;;;;;;5051444;28;20107;-75
2022/02/07 05:57:52;;;;;;;0.10;0.10;;;4.10;99.90;;;;;;5066993;28;20418;-73
2022/02/07 06:00:18;;;;;;;0.10;0.10;;;4.10;99.90;;;;;;5066510;28;20093;-71
2022/02/07 06:02:45;;;;;;;0.10;0.10;;;4.10;99.90;;;;;;5051424;28;20301;-74
2022/02/07 06:05:11;;;;;;;0.10;0.10;;;4.10;99.90;;;;;;5066670;28;20386;-74
2022/02/07 06:07:37;;;;;;;0.22;0.22;;;4.10;99.90;;;;;;5064665;28;20458;-73
2022/02/07 06:10:05;;;;;;;0.10;0.10;;;4.10;99.90;;;;;;5051138;28;20048;-73
2022/02/07 06:12:39;;;;;;;0.00;0.00;;;4.10;99.90;;;;;;5051578;28;20104;-73
2022/02/07 06:15:07;;;;;;;1.02;0.43;;;4.10;99.90;;;;;;5029305;28;20029;-74
2022/02/07 06:17:33;;;;;;;0.10;0.10;;;4.10;99.90;;;;;;5046388;28;20038;-73
2022/02/07 06:20:00;;;;;;;0.10;0.10;;;4.10;99.90;;;;;;5031506;28;20114;-74
2022/02/07 06:22:26;;;;;;;0.10;0.10;;;4.10;99.90;;;;;;5046682;28;20034;-73
2022/02/07 06:24:52;;;;;;;0.05;0.05;;;4.10;99.90;;;;;;5055019;28;20033;-73
2022/02/07 06:27:19;;;;;;;0.10;0.10;;;4.10;99.90;;;;;;5041138;28;20036;-73
2022/02/07 06:29:47;;;;;;;0.15;0.15;;;4.00;99.90;;;;;;5041156;28;20044;-73
2022/02/07 06:32:13;;;;;;;0.10;0.10;;;4.00;99.90;;;;;;5045328;28;20444;-71
2022/02/07 06:34:40;;;;;;;0.05;0.05;;;4.00;99.90;;;;;;5066219;28;20588;-72
2022/02/07 06:37:06;;;;;;;8.68;1.50;;;4.10;99.90;;;;;;5054370;28;20041;-76
2022/02/07 06:39:32;;;;;;;0.10;0.10;;;4.10;99.90;;;;;;5054626;28;20036;-72
2022/02/07 06:41:58;;;;;;;0.13;0.13;;;4.00;99.90;;;;;;5054771;28;20037;-72
2022/02/07 06:44:25;;;;;;;0.10;0.10;;;4.10;99.90;;;;;;5054745;28;20419;-71
2022/02/07 06:46:51;;;;;;;0.30;0.30;;;4.10;99.90;;;;;;5054378;28;20340;-72
2022/02/07 06:49:17;;;;;;;0.10;0.10;;;4.10;99.90;;;;;;5054235;28;20088;-73
2022/02/07 06:51:43;;;;;;;0.10;0.10;;;4.20;99.90;;;;;;5054815;28;20033;-72
2022/02/07 06:54:08;;;;;;;0.30;0.30;;;4.20;99.90;;;;;;5069839;28;20555;-73
2022/02/07 06:56:34;;;;;;;0.10;0.10;;;4.20;99.90;;;;;;5054612;28;20054;-71
2022/02/07 06:59:00;;;;;;;7.72;1.10;;;4.20;99.90;;;;;;5054691;28;20036;-71
2022/02/07 07:01:26;;;;;;;0.10;0.10;;;4.20;99.90;;;;;;5054170;28;20470;-72
2022/02/07 07:03:52;;;;;;;0.10;0.10;;;4.30;99.90;;;;;;5054489;28;20037;-66
2022/02/07 07:06:17;;;;;;;0.10;0.10;;;4.30;99.90;;;;;;5054188;28;20470;-67
2022/02/07 07:08:48;;;;;;;0.10;0.10;;;4.30;99.90;;;;;;5054146;28;20032;-67
2022/02/07 07:11:18;;;;;;;0.00;0.00;;;4.40;99.90;;;;;;5053929;28;20405;-67
2022/02/07 07:13:50;;;;;;;0.00;0.00;;;4.40;99.90;;;;;;5069539;28;20112;-67
2022/02/07 07:18:48;;;;;;;0.10;0.10;;;4.30;99.90;;;;;;5053833;28;20025;-66
2022/02/07 07:21:14;;;;;;;0.10;0.10;;;4.40;99.90;;;;;;5069199;28;20037;-67
2022/02/07 07:23:40;;;;;;;0.00;0.00;;;4.40;99.90;;;;;;5069508;28;20036;-68
2022/02/07 07:26:07;;;;;;;0.10;0.10;;;4.50;99.90;;;;;;5054362;28;20036;-68
2022/02/07 07:28:35;;;;;;;0.10;0.10;;;4.50;99.90;;;;;;5053851;28;20036;-66
2022/02/07 07:31:02;;;;;;;2.28;2.13;;;4.50;99.90;;;;;;5054085;28;20040;-66
2022/02/07 07:33:30;;;;;;;0.10;0.10;;;4.50;99.90;;;;;;5068840;28;20457;-66
2022/02/07 07:35:57;;;;;;;0.10;0.10;;;4.40;99.90;;;;;;5053671;28;20090;-66
2022/02/07 07:38:23;;;;;;;0.10;0.10;;;4.50;99.90;;;;;;5053665;28;20444;-69
2022/02/07 07:40:50;;;;;;;0.00;0.00;;;4.50;99.90;;;;;;5068907;28;20045;-67
2022/02/07 07:43:16;;;;;;;0.10;0.10;;;4.50;99.90;;;;;;5053695;28;20040;-69
2022/02/07 07:45:48;;;;;;;0.10;0.10;;;4.50;99.90;;;;;;5052030;28;20474;-67
2022/02/07 07:48:21;;;;;;;2.17;2.08;;;4.50;99.90;;;;;;5068307;28;20203;-67
2022/02/07 07:51:05;;;;;;;0.20;0.20;;;4.50;99.90;;;;;;5053298;28;20108;-67
2022/02/07 08:04:07;;;;;;;0.00;0.00;;;4.50;99.90;;;;;;5051946;28;20510;-69
2022/02/07 08:12:02;;;;;;;0.00;0.00;;;4.60;99.90;;;;;;5053536;28;20365;-68
2022/02/07 08:14:30;;;;;;;0.52;0.52;;;4.70;99.90;;;;;;5068185;28;20037;-67
2022/02/07 08:16:55;;;;;;;0.10;0.10;;;4.70;99.90;;;;;;5068288;28;20036;-67
2022/02/07 08:19:23;;;;;;;1.02;1.00;;;4.80;99.90;;;;;;5052786;28;20040;-67
2022/02/07 08:21:50;;;;;;;0.05;0.05;;;4.80;99.90;;;;;;5053065;28;20056;-67
2022/02/07 08:24:16;;;;;;;0.08;0.08;;;4.90;99.90;;;;;;5052687;28;20028;-67
2022/02/07 08:26:42;;;;;;;0.55;0.55;;;4.90;99.90;;;;;;5052960;28;20122;-67
2022/02/07 08:29:08;;;;;;;0.77;0.77;;;4.90;99.90;;;;;;5050063;28;20045;-67
2022/02/07 08:31:34;;;;;;;0.00;0.00;;;4.90;99.90;;;;;;5047166;28;20089;-67
2022/02/07 08:34:00;;;;;;;3.72;0.90;;;4.80;99.90;;;;;;5059202;28;20406;-67
2022/02/07 08:36:25;;;;;;;0.10;0.10;;;5.00;99.90;;;;;;5035221;28;20116;-67
2022/02/07 08:38:51;;;;;;;5.78;2.70;;;5.00;99.90;;;;;;5032603;28;20110;-67
2022/02/07 08:41:17;;;;;;;0.10;0.10;;;5.00;99.90;;;;;;5032423;28;20044;-68
2022/02/07 08:43:43;;;;;;;0.25;0.25;;;5.10;99.90;;;;;;5032913;28;20029;-68
2022/02/07 08:46:09;;;;;;;0.03;0.03;;;5.10;99.90;;;;;;5048058;28;20076;-68
2022/02/07 08:48:35;;;;;;;0.00;0.00;;;5.10;99.90;;;;;;5032463;28;20061;-68
2022/02/07 08:51:04;;;;;;;0.00;0.00;;;5.20;99.90;;;;;;5047941;28;20045;-68
2022/02/07 08:53:36;;;;;;;0.00;0.00;;;5.20;99.90;;;;;;5047428;28;20040;-68
2022/02/07 08:56:03;;;;;;;0.10;0.10;;;5.20;99.90;;;;;;5047365;28;20037;-68
2022/02/07 08:58:32;;;;;;;0.55;0.55;;;5.20;99.90;;;;;;5046926;28;20433;-68
2022/02/07 09:01:09;;;;;;;0.10;0.10;;;5.30;99.90;;;;;;5047638;28;20044;-68
2022/02/07 09:06:12;;;;;;;0.00;0.00;;;5.40;99.90;;;;;;5052496;28;20113;-68
2022/02/07 09:11:15;;;;;;;0.10;0.10;;;5.50;99.90;;;;;;5067284;28;20040;-68
2022/02/07 09:13:44;;;;;;;0.85;0.85;;;5.50;99.90;;;;;;5051947;28;20083;-66
2022/02/07 09:18:46;;;;;;;0.10;0.10;;;5.60;99.90;;;;;;5051808;28;20028;-67
2022/02/07 09:21:14;;;;;;;0.10;0.10;;;5.50;99.90;;;;;;5058961;28;20049;-66
2022/02/07 09:23:41;;;;;;;0.75;0.75;;;5.60;99.90;;;;;;5039062;28;20035;-67
2022/02/07 09:26:08;;;;;;;0.25;0.25;;;5.70;99.90;;;;;;5051936;28;20044;-68
2022/02/07 09:28:34;;;;;;;0.10;0.10;;;5.70;99.90;;;;;;5051767;28;20036;-68
2022/02/07 09:31:00;;;;;;;0.20;0.20;;;5.80;99.90;;;;;;5051716;28;20123;-67
2022/02/07 09:33:26;;;;;;;0.20;0.20;;;6.00;99.90;;;;;;5051476;28;20045;-67
2022/02/07 09:35:57;;;;;;;0.10;0.10;;;6.20;99.90;;;;;;5050346;28;20035;-67
2022/02/07 09:38:23;;;;;;;0.05;0.05;;;6.30;99.90;;;;;;5066977;28;20025;-67
2022/02/07 09:40:52;;;;;;;1.13;1.10;;;6.30;99.90;;;;;;5066791;28;20044;-67
2022/02/07 09:43:21;;;;;;;0.32;0.32;;;6.50;99.90;;;;;;5051824;28;20051;-67
2022/02/07 09:45:50;;;;;;;0.00;0.00;;;6.50;99.90;;;;;;5045721;28;20044;-67
2022/02/07 09:48:17;;;;;;;0.10;0.10;;;6.50;99.90;;;;;;5035485;28;20033;-67
2022/02/07 09:50:45;;;;;;;0.10;0.10;;;6.50;99.90;;;;;;5046556;28;20036;-67
2022/02/07 09:53:14;;;;;;;0.35;0.35;;;6.50;99.90;;;;;;5041273;28;20037;-67
2022/02/07 09:55:40;;;;;;;0.00;0.00;;;6.50;99.90;;;;;;5033175;28;20319;-67
2022/02/07 09:58:07;;;;;;;0.00;0.00;;;6.50;99.90;;;;;;5031804;28;20033;-67
2022/02/07 10:00:34;;;;;;;0.00;0.00;;;6.60;99.90;;;;;;5031180;28;20056;-66
2022/02/07 10:06:09;;;;;;;0.00;0.00;;;6.80;99.90;;;;;;5046155;28;20122;-66
2022/02/07 10:16:41;;;;;;;0.43;0.43;;;7.60;99.90;;;;;;5050589;28;20044;-67
2022/02/07 10:38:05;;;;;;;0.10;0.10;;;7.00;99.90;;;;;;5034829;28;20052;-69
2022/02/07 10:40:42;;;;;;;0.00;0.00;;;7.00;99.90;;;;;;5050084;28;20062;-67
2022/02/07 10:43:22;;;;;;;0.10;0.10;;;7.00;99.90;;;;;;5034780;28;20052;-66
2022/02/07 10:46:01;;;;;;;37.47;3.20;;;7.10;99.90;;;;;;5035002;28;20117;-67
2022/02/07 10:48:51;;;;;;;0.00;0.00;;;7.20;99.90;;;;;;5034662;28;20038;-66
2022/02/07 10:51:33;;;;;;;4.55;1.35;;;7.30;99.90;;;;;;5034635;28;20041;-67
2022/02/07 10:54:00;;;;;;;0.00;0.00;;;7.50;99.90;;;;;;5033439;28;20041;-66
2022/02/07 10:56:43;;;;;;;0.00;0.00;;;7.60;99.90;;;;;;5049739;28;20034;-67
2022/02/07 10:59:18;;;;;;;0.00;0.00;;;7.60;99.90;;;;;;5034924;28;20120;-67
2022/02/07 11:04:22;;;;;;;0.00;0.00;;;7.40;99.90;;;;;;5049480;28;20036;-67
2022/02/07 11:06:52;;;;;;;0.00;0.00;;;7.30;99.90;;;;;;5034926;28;20029;-66
2022/02/07 11:22:51;;;;;;;0.00;0.00;;;7.30;99.90;;;;;;5052722;28;20044;-64
2022/02/07 11:27:53;;;;;;;0.00;0.00;;;7.40;99.90;;;;;;5053840;28;20029;-65
2022/02/07 11:30:41;;;;;;;0.00;0.00;;;7.50;99.90;;;;;;5053274;28;20711;-63
2022/02/07 11:33:35;;;;;;;0.00;0.00;;;7.80;99.90;;;;;;5053662;28;20049;-64
2022/02/07 11:36:04;;;;;;;0.00;0.00;;;7.70;99.90;;;;;;5069026;28;20029;-65
2022/02/07 11:38:30;;;;;;;0.10;0.10;;;7.70;99.90;;;;;;5053806;28;20072;-69
2022/02/07 11:41:04;;;;;;;0.52;0.52;;;7.70;99.90;;;;;;5069054;28;20477;-70
2022/02/07 11:43:37;;;;;;;0.00;0.00;;;7.70;99.90;;;;;;5053888;28;20071;-69
2022/02/07 11:46:11;;;;;;;0.32;0.32;;;7.80;99.90;;;;;;5053664;28;20037;-71
2022/02/07 11:48:39;;;;;;;0.00;0.00;;;7.70;99.90;;;;;;5068635;28;20478;-67
2022/02/07 11:51:31;;;;;;;0.93;0.85;;;7.70;99.90;;;;;;5053894;28;20037;-64
2022/02/07 11:54:07;;;;;;;0.10;0.10;;;7.90;99.90;;;;;;5034429;28;20078;-65
2022/02/07 11:59:28;;;;;;;0.00;0.00;;;7.90;99.90;;;;;;5033648;28;20025;-64
2022/02/07 12:02:16;;;;;;;0.00;0.00;;;7.80;99.90;;;;;;5048983;28;20038;-64
2022/02/07 12:04:48;;;;;;;0.57;0.57;;;7.70;99.90;;;;;;5033609;28;20033;-64
2022/02/07 12:07:24;;;;;;;0.10;0.10;;;7.80;99.90;;;;;;5033628;28;20501;-64
2022/02/07 12:10:03;;;;;;;0.38;0.38;;;7.80;99.90;;;;;;5032983;28;20485;-64
2022/02/07 12:12:49;;;;;;;0.10;0.10;;;7.80;99.90;;;;;;5031798;28;20037;-64
2022/02/07 12:18:14;;;;;;;0.00;0.00;;;8.00;99.90;;;;;;5033151;28;20073;-64
2022/02/07 12:20:48;;;;;;;0.20;0.20;;;8.10;99.90;;;;;;5033286;28;20057;-65
2022/02/07 12:23:31;;;;;;;0.00;0.00;;;8.00;99.90;;;;;;5031896;28;20041;-64
2022/02/07 12:26:11;;;;;;;0.00;0.00;;;8.00;99.90;;;;;;5033054;28;20117;-65
2022/02/07 12:31:20;;;;;;;0.17;0.17;;;7.90;99.90;;;;;;5033234;28;20037;-64
2022/02/07 12:34:00;;;;;;;0.00;0.00;;;7.90;99.90;;;;;;5031420;28;20045;-64
2022/02/07 12:36:35;;;;;;;0.55;0.55;;;7.70;99.90;;;;;;5033153;28;20036;-63
2022/02/07 12:39:06;;;;;;;0.00;0.00;;;7.80;99.90;;;;;;5033112;28;20029;-63
2022/02/07 12:41:33;;;;;;;0.00;0.00;;;7.80;99.90;;;;;;5031508;28;20112;-63
2022/02/07 12:44:03;;;;;;;0.00;0.00;;;7.90;99.90;;;;;;5031453;28;20038;-63
2022/02/07 12:46:31;;;;;;;0.00;0.00;;;7.80;99.90;;;;;;5031459;28;20036;-64
2022/02/07 12:48:58;;;;;;;0.00;0.00;;;7.60;99.90;;;;;;5032701;28;20029;-64
2022/02/07 12:51:42;;;;;;;0.10;0.10;;;7.70;99.90;;;;;;5032444;28;20056;-64
2022/02/07 12:54:19;;;;;;;0.00;0.00;;;7.60;99.90;;;;;;5031440;28;20063;-64
2022/02/07 12:56:45;;;;;;;0.00;0.00;;;7.60;99.90;;;;;;5031150;28;20393;-64
2022/02/07 12:59:15;;;;;;;0.00;0.00;;;7.60;99.90;;;;;;5032576;28;20083;-64
2022/02/07 13:01:42;;;;;;;0.00;0.00;;;7.70;99.90;;;;;;5032129;28;20147;-64
2022/02/07 13:04:18;;;;;;;0.00;0.00;;;7.90;99.90;;;;;;5030930;28;20478;-64
2022/02/07 13:06:57;;;;;;;0.00;0.00;;;8.00;99.90;;;;;;5030809;28;20034;-64
2022/02/07 13:09:28;;;;;;;0.03;0.03;;;8.00;99.90;;;;;;5014219;28;20030;-64
2022/02/07 13:14:50;;;;;;;0.10;0.10;;;8.30;99.90;;;;;;5030783;28;20048;-65
2022/02/07 13:17:20;;;;;;;0.03;0.03;;;8.90;99.90;;;;;;5032481;28;20037;-63
2022/02/07 13:19:49;;;;;;;0.00;0.00;;;9.10;99.80;;;;;;5023025;28;20061;-63
2022/02/07 13:22:17;;;;;;;0.00;0.00;;;8.80;99.90;;;;;;5030925;28;20030;-65
2022/02/07 13:24:45;;;;;;;0.20;0.20;;;9.40;98.90;;;;;;5041427;28;20037;-64
2022/02/07 13:27:15;;;;;;;0.73;0.73;;;9.70;97.60;;;;;;5051352;28;20033;-64
2022/02/07 13:29:48;;;;;;;0.00;0.00;;;9.30;98.50;;;;;;5066905;28;20421;-64
2022/02/07 13:32:17;;;;;;;0.03;0.03;;;9.10;98.60;;;;;;5051539;28;20124;-64
2022/02/07 13:34:45;;;;;;;0.00;0.00;;;9.10;96.80;;;;;;5051789;28;20454;-64
2022/02/07 13:37:27;;;;;;;0.10;0.10;;;8.70;96.90;;;;;;5067079;28;20039;-65
2022/02/07 13:40:01;;;;;;;0.10;0.10;;;8.40;97.80;;;;;;5067317;28;20045;-64
2022/02/07 13:42:38;;;;;;;4.75;0.63;;;8.10;97.40;;;;;;5051642;28;20040;-64
2022/02/07 13:45:16;;;;;;;0.00;0.00;;;7.90;98.20;;;;;;5066812;28;20485;-64
2022/02/07 13:47:45;;;;;;;0.00;0.00;;;8.00;98.20;;;;;;5042220;28;20025;-64
2022/02/07 13:50:15;;;;;;;0.10;0.10;;;8.00;98.50;;;;;;5040912;28;20037;-64
2022/02/07 13:52:46;;;;;;;0.03;0.03;;;7.90;98.60;;;;;;5050778;28;20033;-64
2022/02/07 13:55:23;;;;;;;0.10;0.10;;;7.80;99.50;;;;;;5051798;28;20087;-62
2022/02/07 13:58:01;;;;;;;0.40;0.40;;;7.70;99.90;;;;;;5051713;28;20029;-64
2022/02/07 14:00:38;;;;;;;0.00;0.00;;;7.60;99.90;;;;;;5066952;28;20036;-64
2022/02/07 14:03:13;;;;;;;0.10;0.10;;;7.60;99.90;;;;;;5051891;28;20114;-63
2022/02/07 14:05:50;;;;;;;5.68;4.28;;;7.70;99.90;;;;;;5051649;28;20028;-63
2022/02/07 14:08:29;;;;;;;0.03;0.03;;;7.60;99.90;;;;;;5051691;28;20120;-64
2022/02/07 14:10:54;;;;;;;0.10;0.10;;;7.60;99.90;;;;;;5065864;28;20029;-64
2022/02/07 14:13:22;;;;;;;0.30;0.30;;;7.60;99.90;;;;;;5051719;28;20465;-64
2022/02/07 14:15:48;;;;;;;0.00;0.00;;;7.60;99.90;;;;;;5051234;28;20052;-63
2022/02/07 14:18:17;;;;;;;0.00;0.00;;;7.50;99.90;;;;;;5051582;28;20108;-64
2022/02/07 14:20:45;;;;;;;0.25;0.25;;;7.50;99.90;;;;;;5048189;28;20096;-64
2022/02/07 14:23:15;;;;;;;0.10;0.10;;;7.60;99.90;;;;;;5051419;28;20059;-64
2022/02/07 14:25:44;;;;;;;0.00;0.00;;;7.60;99.90;;;;;;5050982;28;20050;-64
2022/02/07 14:28:11;;;;;;;0.00;0.00;;;7.80;99.10;;;;;;5051193;28;20072;-64
2022/02/07 14:30:38;;;;;;;0.00;0.00;;;7.80;99.40;;;;;;5051107;28;20029;-64
2022/02/07 14:33:05;;;;;;;0.00;0.00;;;7.70;99.70;;;;;;5066267;28;20429;-64
2022/02/07 14:35:32;;;;;;;0.00;0.00;;;7.70;99.60;;;;;;5051183;28;20044;-65
2022/02/07 14:38:02;;;;;;;0.00;0.00;;;7.80;99.70;;;;;;5043943;28;20029;-64
2022/02/07 14:40:29;;;;;;;0.03;0.03;;;7.90;99.90;;;;;;5041781;28;20037;-64
2022/02/07 14:42:58;;;;;;;0.00;0.00;;;7.90;99.90;;;;;;5051268;28;20476;-63
2022/02/07 14:45:32;;;;;;;0.00;0.00;;;8.00;99.90;;;;;;5051182;28;20382;-63
2022/02/07 14:48:03;;;;;;;0.00;0.00;;;7.80;99.90;;;;;;5058862;28;20105;-63
2022/02/07 14:50:29;;;;;;;0.05;0.05;;;7.60;99.90;;;;;;5046267;28;20041;-63
2022/02/07 14:52:56;;;;;;;0.00;0.00;;;7.50;99.90;;;;;;5030839;28;20036;-63
2022/02/07 14:55:24;;;;;;;0.10;0.10;;;7.60;99.90;;;;;;5046521;28;20057;-63
2022/02/07 14:57:50;;;;;;;0.10;0.10;;;7.60;99.90;;;;;;5033759;28;20033;-63
2022/02/07 15:00:23;;;;;;;0.20;0.20;;;7.60;99.90;;;;;;5034585;28;20030;-63
2022/02/07 15:02:49;;;;;;;1.30;1.00;;;7.40;99.90;;;;;;5034548;28;20624;-63
2022/02/07 15:05:16;;;;;;;0.00;0.00;;;7.50;99.90;;;;;;5034570;28;20390;-62
2022/02/07 15:07:42;;;;;;;0.15;0.15;;;7.40;99.90;;;;;;5034528;28;20033;-64
2022/02/07 15:10:10;;;;;;;0.00;0.00;;;7.40;99.90;;;;;;5049633;28;20510;-63
2022/02/07 15:12:36;;;;;;;0.10;0.10;;;7.30;99.90;;;;;;5034304;28;20037;-64
2022/02/07 15:15:03;;;;;;;0.00;0.00;;;7.30;99.90;;;;;;5034189;28;20029;-68
2022/02/07 15:17:30;;;;;;;1.25;0.75;;;7.40;99.90;;;;;;5034575;28;20413;-68
2022/02/07 15:20:01;;;;;;;0.00;0.00;;;7.40;99.90;;;;;;5052476;28;20033;-64
2022/02/07 15:22:27;;;;;;;0.00;0.00;;;7.40;99.90;;;;;;5069622;28;20029;-71
2022/02/07 15:24:57;;;;;;;2.92;1.35;;;7.50;99.90;;;;;;5069095;28;20044;-63
2022/02/07 15:27:25;;;;;;;0.00;0.00;;;7.50;99.90;;;;;;5052755;28;20029;-63
2022/02/07 15:29:56;;;;;;;0.00;0.00;;;7.50;99.90;;;;;;5053829;28;20114;-63
2022/02/07 15:32:23;;;;;;;0.00;0.00;;;7.70;99.90;;;;;;5053877;28;20036;-63
2022/02/07 15:34:53;;;;;;;0.00;0.00;;;8.10;99.90;;;;;;5054192;28;20060;-63
2022/02/07 15:37:19;;;;;;;4.97;1.15;;;8.30;99.90;;;;;;5054272;28;20163;-63
2022/02/07 15:39:45;;;;;;;1.02;1.02;;;8.00;99.90;;;;;;5053818;28;20037;-63
2022/02/07 15:42:12;;;;;;;0.00;0.00;;;8.10;99.90;;;;;;5069702;28;20029;-63
2022/02/07 15:44:38;;;;;;;0.00;0.00;;;8.50;99.90;;;;;;5053973;28;20166;-63
2022/02/07 15:47:05;;;;;;;0.00;0.00;;;8.60;99.90;;;;;;5069684;28;20377;-63
2022/02/07 15:49:31;;;;;;;0.00;0.00;;;8.50;99.90;;;;;;5053897;28;20116;-63
2022/02/07 15:52:00;;;;;;;0.00;0.00;;;8.50;99.90;;;;;;5069046;28;20057;-62
2022/02/07 15:54:28;;;;;;;0.13;0.13;;;8.50;99.90;;;;;;5053794;28;20086;-63
2022/02/07 15:56:53;;;;;;;0.00;0.00;;;8.70;99.80;;;;;;5069075;28;20095;-62
2022/02/07 15:59:19;;;;;;;0.00;0.00;;;8.60;99.80;;;;;;5053702;28;20478;-63
2022/02/07 16:01:45;;;;;;;0.00;0.00;;;8.60;99.90;;;;;;5053706;28;20062;-63
2022/02/07 16:04:11;;;;;;;0.00;0.00;;;8.50;99.90;;;;;;5068970;28;20033;-63
2022/02/07 16:06:37;;;;;;;0.00;0.00;;;8.50;99.90;;;;;;5051707;28;20029;-64